sensor_id;sensor_type;location;lat;lon;timestamp;P1;durP1;ratioP1;P2;durP2;ratioP2
16133;SDS011;8172;45.018;5.972;2022-08-18T00:02:52;1.30;;;0.80;;
16133;SDS011;8172;45.018;5.972;2022-08-18T00:08:01;0.83;;;0.77;;
16133;SDS011;8172;45.018;5.972;2022-08-18T00:13:08;0.70;;;0.63;;
16133;SDS011;8172;45.018;5.972;2022-08-18T00:18:16;3.13;;;0.70;;
16133;SDS011;8172;45.018;5.972;2022-08-18T00:23:23;0.97;;;0.60;;
16133;SDS011;8172;45.018;5.972;2022-08-18T00:28:31;1.43;;;0.73;;
16133;SDS011;8172;45.018;5.972;2022-08-18T00:33:38;1.23;;;0.70;;
16133;SDS011;8172;45.018;5.972;2022-08-18T00:38:47;0.70;;;0.70;;
16133;SDS011;8172;45.018;5.972;2022-08-18T00:43:54;0.70;;;0.70;;
16133;SDS011;8172;45.018;5.972;2022-08-18T00:49:04;1.00;;;0.80;;
16133;SDS011;8172;45.018;5.972;2022-08-18T00:59:32;0.80;;;0.80;;
16133;SDS011;8172;45.018;5.972;2022-08-18T01:04:35;2.20;;;0.70;;
16133;SDS011;8172;45.018;5.972;2022-08-18T01:09:42;0.80;;;0.80;;
16133;SDS011;8172;45.018;5.972;2022-08-18T01:14:49;2.20;;;1.00;;
16133;SDS011;8172;45.018;5.972;2022-08-18T01:19:56;0.60;;;0.60;;
16133;SDS011;8172;45.018;5.972;2022-08-18T01:25:05;0.70;;;0.70;;
16133;SDS011;8172;45.018;5.972;2022-08-18T01:30:16;0.70;;;0.70;;
16133;SDS011;8172;45.018;5.972;2022-08-18T01:35:25;1.73;;;0.80;;
16133;SDS011;8172;45.018;5.972;2022-08-18T01:40:34;1.73;;;0.90;;
16133;SDS011;8172;45.018;5.972;2022-08-18T01:45:43;0.93;;;0.80;;
16133;SDS011;8172;45.018;5.972;2022-08-18T01:50:50;0.70;;;0.70;;
16133;SDS011;8172;45.018;5.972;2022-08-18T01:55:58;1.83;;;0.80;;
16133;SDS011;8172;45.018;5.972;2022-08-18T02:01:06;1.97;;;0.80;;
16133;SDS011;8172;45.018;5.972;2022-08-18T02:06:15;0.90;;;0.77;;
16133;SDS011;8172;45.018;5.972;2022-08-18T02:11:25;0.77;;;0.70;;
16133;SDS011;8172;45.018;5.972;2022-08-18T02:16:31;0.83;;;0.70;;
16133;SDS011;8172;45.018;5.972;2022-08-18T02:21:39;2.03;;;0.70;;
16133;SDS011;8172;45.018;5.972;2022-08-18T02:26:46;1.83;;;0.90;;
16133;SDS011;8172;45.018;5.972;2022-08-18T02:31:53;2.10;;;0.70;;
16133;SDS011;8172;45.018;5.972;2022-08-18T02:37:00;0.80;;;0.80;;
16133;SDS011;8172;45.018;5.972;2022-08-18T02:42:08;0.60;;;0.60;;
16133;SDS011;8172;45.018;5.972;2022-08-18T02:47:19;1.67;;;0.83;;
16133;SDS011;8172;45.018;5.972;2022-08-18T02:52:25;0.70;;;0.70;;
16133;SDS011;8172;45.018;5.972;2022-08-18T02:57:34;0.70;;;0.70;;
16133;SDS011;8172;45.018;5.972;2022-08-18T03:07:51;0.93;;;0.83;;
16133;SDS011;8172;45.018;5.972;2022-08-18T03:12:58;0.80;;;0.70;;
16133;SDS011;8172;45.018;5.972;2022-08-18T03:18:05;1.77;;;0.70;;
16133;SDS011;8172;45.018;5.972;2022-08-18T03:23:12;0.83;;;0.70;;
16133;SDS011;8172;45.018;5.972;2022-08-18T03:28:19;0.87;;;0.80;;
16133;SDS011;8172;45.018;5.972;2022-08-18T03:33:26;0.90;;;0.70;;
16133;SDS011;8172;45.018;5.972;2022-08-18T03:38:33;0.90;;;0.70;;
16133;SDS011;8172;45.018;5.972;2022-08-18T03:43:40;1.53;;;0.70;;
16133;SDS011;8172;45.018;5.972;2022-08-18T03:48:49;0.60;;;0.60;;
16133;SDS011;8172;45.018;5.972;2022-08-18T03:53:58;2.40;;;0.67;;
16133;SDS011;8172;45.018;5.972;2022-08-18T03:59:08;1.13;;;0.70;;
16133;SDS011;8172;45.018;5.972;2022-08-18T04:04:18;0.60;;;0.60;;
16133;SDS011;8172;45.018;5.972;2022-08-18T04:09:28;0.60;;;0.60;;
16133;SDS011;8172;45.018;5.972;2022-08-18T04:14:37;0.70;;;0.70;;
16133;SDS011;8172;45.018;5.972;2022-08-18T04:19:46;1.90;;;0.60;;
16133;SDS011;8172;45.018;5.972;2022-08-18T04:24:53;0.70;;;0.70;;
16133;SDS011;8172;45.018;5.972;2022-08-18T04:30:02;0.83;;;0.70;;
16133;SDS011;8172;45.018;5.972;2022-08-18T04:35:09;1.47;;;0.60;;
16133;SDS011;8172;45.018;5.972;2022-08-18T04:40:18;0.60;;;0.60;;
16133;SDS011;8172;45.018;5.972;2022-08-18T04:45:26;0.80;;;0.80;;
16133;SDS011;8172;45.018;5.972;2022-08-18T04:50:34;0.70;;;0.70;;
16133;SDS011;8172;45.018;5.972;2022-08-18T04:55:46;0.60;;;0.60;;
16133;SDS011;8172;45.018;5.972;2022-08-18T05:00:55;1.33;;;0.83;;
16133;SDS011;8172;45.018;5.972;2022-08-18T05:06:03;0.70;;;0.70;;
16133;SDS011;8172;45.018;5.972;2022-08-18T05:11:11;1.93;;;0.80;;
16133;SDS011;8172;45.018;5.972;2022-08-18T05:16:19;0.93;;;0.70;;
16133;SDS011;8172;45.018;5.972;2022-08-18T05:21:28;0.80;;;0.80;;
16133;SDS011;8172;45.018;5.972;2022-08-18T05:26:37;1.33;;;0.80;;
16133;SDS011;8172;45.018;5.972;2022-08-18T05:31:46;1.17;;;0.80;;
16133;SDS011;8172;45.018;5.972;2022-08-18T05:42:04;1.00;;;0.70;;
16133;SDS011;8172;45.018;5.972;2022-08-18T05:47:16;1.20;;;0.80;;
16133;SDS011;8172;45.018;5.972;2022-08-18T05:52:29;0.87;;;0.80;;
16133;SDS011;8172;45.018;5.972;2022-08-18T05:57:37;1.33;;;0.70;;
16133;SDS011;8172;45.018;5.972;2022-08-18T06:07:53;2.43;;;1.00;;
16133;SDS011;8172;45.018;5.972;2022-08-18T06:13:02;1.67;;;1.00;;
16133;SDS011;8172;45.018;5.972;2022-08-18T06:23:24;0.80;;;0.80;;
16133;SDS011;8172;45.018;5.972;2022-08-18T06:28:35;1.87;;;0.80;;
16133;SDS011;8172;45.018;5.972;2022-08-18T06:33:43;0.80;;;0.80;;
16133;SDS011;8172;45.018;5.972;2022-08-18T06:44:02;0.97;;;0.97;;
16133;SDS011;8172;45.018;5.972;2022-08-18T06:49:13;1.33;;;0.80;;
16133;SDS011;8172;45.018;5.972;2022-08-18T06:59:28;3.53;;;1.10;;
16133;SDS011;8172;45.018;5.972;2022-08-18T07:09:46;0.90;;;0.90;;
16133;SDS011;8172;45.018;5.972;2022-08-18T07:14:56;0.83;;;0.80;;
16133;SDS011;8172;45.018;5.972;2022-08-18T07:25:17;0.90;;;0.90;;
16133;SDS011;8172;45.018;5.972;2022-08-18T07:30:25;0.90;;;0.90;;
16133;SDS011;8172;45.018;5.972;2022-08-18T07:35:36;0.90;;;0.90;;
16133;SDS011;8172;45.018;5.972;2022-08-18T07:40:46;1.30;;;1.20;;
16133;SDS011;8172;45.018;5.972;2022-08-18T07:45:56;1.20;;;1.10;;
16133;SDS011;8172;45.018;5.972;2022-08-18T07:56:19;1.30;;;1.20;;
16133;SDS011;8172;45.018;5.972;2022-08-18T08:06:40;1.30;;;1.20;;
16133;SDS011;8172;45.018;5.972;2022-08-18T08:27:20;1.20;;;1.10;;
16133;SDS011;8172;45.018;5.972;2022-08-18T08:32:33;1.20;;;1.10;;
16133;SDS011;8172;45.018;5.972;2022-08-18T08:37:40;1.70;;;1.60;;
16133;SDS011;8172;45.018;5.972;2022-08-18T08:48:01;3.43;;;1.60;;
16133;SDS011;8172;45.018;5.972;2022-08-18T08:53:17;1.77;;;1.67;;
16133;SDS011;8172;45.018;5.972;2022-08-18T08:58:25;2.00;;;1.80;;
16133;SDS011;8172;45.018;5.972;2022-08-18T09:08:50;1.70;;;1.60;;
16133;SDS011;8172;45.018;5.972;2022-08-18T09:29:34;2.30;;;2.10;;
16133;SDS011;8172;45.018;5.972;2022-08-18T09:34:36;1.97;;;1.87;;
16133;SDS011;8172;45.018;5.972;2022-08-18T09:39:42;2.80;;;2.20;;
16133;SDS011;8172;45.018;5.972;2022-08-18T10:00:24;2.17;;;2.07;;
16133;SDS011;8172;45.018;5.972;2022-08-18T10:05:29;2.80;;;2.07;;
16133;SDS011;8172;45.018;5.972;2022-08-18T10:31:23;2.80;;;2.60;;
16133;SDS011;8172;45.018;5.972;2022-08-18T10:36:35;2.33;;;2.13;;
16133;SDS011;8172;45.018;5.972;2022-08-18T10:41:48;2.40;;;2.20;;
16133;SDS011;8172;45.018;5.972;2022-08-18T10:46:53;2.73;;;2.30;;
16133;SDS011;8172;45.018;5.972;2022-08-18T10:52:07;3.63;;;2.40;;
16133;SDS011;8172;45.018;5.972;2022-08-18T10:57:12;2.50;;;2.13;;
16133;SDS011;8172;45.018;5.972;2022-08-18T11:02:32;3.00;;;2.70;;
16133;SDS011;8172;45.018;5.972;2022-08-18T11:07:31;2.70;;;2.50;;
16133;SDS011;8172;45.018;5.972;2022-08-18T11:18:04;3.27;;;2.90;;
16133;SDS011;8172;45.018;5.972;2022-08-18T11:23:10;3.50;;;3.20;;
16133;SDS011;8172;45.018;5.972;2022-08-18T11:28:18;2.87;;;2.67;;
16133;SDS011;8172;45.018;5.972;2022-08-18T11:33:28;2.87;;;2.63;;
16133;SDS011;8172;45.018;5.972;2022-08-18T11:43:55;2.87;;;2.67;;
16133;SDS011;8172;45.018;5.972;2022-08-18T11:54:20;4.90;;;2.63;;
16133;SDS011;8172;45.018;5.972;2022-08-18T11:59:30;3.90;;;2.97;;
16133;SDS011;8172;45.018;5.972;2022-08-18T12:04:41;3.60;;;2.97;;
16133;SDS011;8172;45.018;5.972;2022-08-18T12:15:03;3.30;;;3.00;;
16133;SDS011;8172;45.018;5.972;2022-08-18T12:20:13;3.17;;;2.90;;
16133;SDS011;8172;45.018;5.972;2022-08-18T12:25:22;3.50;;;3.20;;
16133;SDS011;8172;45.018;5.972;2022-08-18T12:30:29;3.67;;;3.27;;
16133;SDS011;8172;45.018;5.972;2022-08-18T12:35:38;4.03;;;3.63;;
16133;SDS011;8172;45.018;5.972;2022-08-18T12:40:48;4.17;;;3.77;;
16133;SDS011;8172;45.018;5.972;2022-08-18T12:45:56;3.60;;;3.30;;
16133;SDS011;8172;45.018;5.972;2022-08-18T12:51:04;3.63;;;3.33;;
16133;SDS011;8172;45.018;5.972;2022-08-18T12:56:21;3.90;;;3.40;;
16133;SDS011;8172;45.018;5.972;2022-08-18T13:01:24;3.30;;;3.00;;
16133;SDS011;8172;45.018;5.972;2022-08-18T13:06:32;3.67;;;3.37;;
16133;SDS011;8172;45.018;5.972;2022-08-18T13:11:43;4.07;;;3.50;;
16133;SDS011;8172;45.018;5.972;2022-08-18T13:16:52;3.53;;;3.20;;
16133;SDS011;8172;45.018;5.972;2022-08-18T13:21:59;3.33;;;3.03;;
16133;SDS011;8172;45.018;5.972;2022-08-18T13:27:07;3.87;;;3.40;;
16133;SDS011;8172;45.018;5.972;2022-08-18T13:32:17;4.13;;;3.40;;
16133;SDS011;8172;45.018;5.972;2022-08-18T13:37:25;3.33;;;3.03;;
16133;SDS011;8172;45.018;5.972;2022-08-18T13:42:42;3.10;;;2.90;;
16133;SDS011;8172;45.018;5.972;2022-08-18T13:47:47;3.37;;;3.07;;
16133;SDS011;8172;45.018;5.972;2022-08-18T13:52:56;3.80;;;3.40;;
16133;SDS011;8172;45.018;5.972;2022-08-18T13:58:05;3.60;;;3.30;;
16133;SDS011;8172;45.018;5.972;2022-08-18T14:03:14;3.60;;;3.30;;
16133;SDS011;8172;45.018;5.972;2022-08-18T14:08:23;3.50;;;3.20;;
16133;SDS011;8172;45.018;5.972;2022-08-18T14:13:31;5.90;;;3.60;;
16133;SDS011;8172;45.018;5.972;2022-08-18T14:18:40;3.70;;;3.40;;
16133;SDS011;8172;45.018;5.972;2022-08-18T14:23:49;3.40;;;3.10;;
16133;SDS011;8172;45.018;5.972;2022-08-18T14:28:58;3.33;;;3.03;;
16133;SDS011;8172;45.018;5.972;2022-08-18T14:34:07;3.87;;;3.20;;
16133;SDS011;8172;45.018;5.972;2022-08-18T14:39:14;3.20;;;2.90;;
16133;SDS011;8172;45.018;5.972;2022-08-18T14:44:23;3.20;;;3.00;;
16133;SDS011;8172;45.018;5.972;2022-08-18T14:49:32;3.60;;;3.30;;
16133;SDS011;8172;45.018;5.972;2022-08-18T14:54:41;4.10;;;3.00;;
16133;SDS011;8172;45.018;5.972;2022-08-18T14:59:50;3.10;;;2.90;;
16133;SDS011;8172;45.018;5.972;2022-08-18T15:04:59;3.40;;;3.10;;
16133;SDS011;8172;45.018;5.972;2022-08-18T15:10:08;4.10;;;3.00;;
16133;SDS011;8172;45.018;5.972;2022-08-18T15:15:20;3.60;;;3.30;;
16133;SDS011;8172;45.018;5.972;2022-08-18T15:20:29;3.33;;;3.03;;
16133;SDS011;8172;45.018;5.972;2022-08-18T15:25:38;3.27;;;2.97;;
16133;SDS011;8172;45.018;5.972;2022-08-18T15:30:47;3.87;;;3.53;;
16133;SDS011;8172;45.018;5.972;2022-08-18T15:35:56;3.13;;;2.93;;
16133;SDS011;8172;45.018;5.972;2022-08-18T15:41:05;3.83;;;3.53;;
16133;SDS011;8172;45.018;5.972;2022-08-18T15:46:13;6.80;;;3.60;;
16133;SDS011;8172;45.018;5.972;2022-08-18T15:51:21;3.67;;;3.37;;
16133;SDS011;8172;45.018;5.972;2022-08-18T15:56:29;3.73;;;3.43;;
16133;SDS011;8172;45.018;5.972;2022-08-18T16:01:37;3.83;;;3.10;;
16133;SDS011;8172;45.018;5.972;2022-08-18T16:06:45;4.47;;;3.90;;
16133;SDS011;8172;45.018;5.972;2022-08-18T16:11:55;5.53;;;3.40;;
16133;SDS011;8172;45.018;5.972;2022-08-18T16:17:04;4.77;;;3.90;;
16133;SDS011;8172;45.018;5.972;2022-08-18T16:22:13;4.67;;;4.13;;
16133;SDS011;8172;45.018;5.972;2022-08-18T16:27:20;5.13;;;3.90;;
16133;SDS011;8172;45.018;5.972;2022-08-18T16:32:27;6.00;;;4.40;;
16133;SDS011;8172;45.018;5.972;2022-08-18T16:37:35;6.00;;;4.60;;
16133;SDS011;8172;45.018;5.972;2022-08-18T16:42:43;4.53;;;3.93;;
16133;SDS011;8172;45.018;5.972;2022-08-18T16:47:54;4.63;;;4.23;;
16133;SDS011;8172;45.018;5.972;2022-08-18T16:53:01;4.83;;;4.33;;
16133;SDS011;8172;45.018;5.972;2022-08-18T16:58:09;4.73;;;4.23;;
16133;SDS011;8172;45.018;5.972;2022-08-18T17:03:19;6.07;;;5.10;;
16133;SDS011;8172;45.018;5.972;2022-08-18T17:08:29;5.23;;;4.73;;
16133;SDS011;8172;45.018;5.972;2022-08-18T17:13:39;5.70;;;4.40;;
16133;SDS011;8172;45.018;5.972;2022-08-18T17:18:51;5.80;;;4.00;;
16133;SDS011;8172;45.018;5.972;2022-08-18T17:24:01;4.30;;;3.90;;
16133;SDS011;8172;45.018;5.972;2022-08-18T17:34:18;6.03;;;5.53;;
16133;SDS011;8172;45.018;5.972;2022-08-18T17:39:30;5.67;;;4.77;;
16133;SDS011;8172;45.018;5.972;2022-08-18T17:44:39;6.80;;;4.20;;
16133;SDS011;8172;45.018;5.972;2022-08-18T17:49:49;6.50;;;5.40;;
16133;SDS011;8172;45.018;5.972;2022-08-18T17:55:04;5.50;;;5.00;;
16133;SDS011;8172;45.018;5.972;2022-08-18T18:00:13;5.67;;;5.07;;
16133;SDS011;8172;45.018;5.972;2022-08-18T18:05:21;6.13;;;5.20;;
16133;SDS011;8172;45.018;5.972;2022-08-18T18:15:45;6.47;;;5.63;;
16133;SDS011;8172;45.018;5.972;2022-08-18T18:31:16;5.73;;;5.10;;
16133;SDS011;8172;45.018;5.972;2022-08-18T18:41:32;6.67;;;5.20;;
16133;SDS011;8172;45.018;5.972;2022-08-18T18:56:58;6.53;;;5.10;;
16133;SDS011;8172;45.018;5.972;2022-08-18T19:07:23;6.77;;;6.07;;
16133;SDS011;8172;45.018;5.972;2022-08-18T19:12:29;3.90;;;3.50;;
16133;SDS011;8172;45.018;5.972;2022-08-18T19:22:49;42.47;;;5.57;;
16133;SDS011;8172;45.018;5.972;2022-08-18T19:33:10;45.10;;;4.87;;
16133;SDS011;8172;45.018;5.972;2022-08-18T20:14:35;3.60;;;2.17;;
16133;SDS011;8172;45.018;5.972;2022-08-18T20:25:00;2.60;;;2.23;;
16133;SDS011;8172;45.018;5.972;2022-08-18T20:35:17;3.03;;;2.20;;
16133;SDS011;8172;45.018;5.972;2022-08-18T20:45:33;35.80;;;3.20;;
16133;SDS011;8172;45.018;5.972;2022-08-18T21:01:02;1.90;;;1.80;;
16133;SDS011;8172;45.018;5.972;2022-08-18T21:06:12;1.90;;;1.80;;
16133;SDS011;8172;45.018;5.972;2022-08-18T21:16:32;2.00;;;1.80;;
16133;SDS011;8172;45.018;5.972;2022-08-18T21:21:43;1.80;;;1.63;;
16133;SDS011;8172;45.018;5.972;2022-08-18T21:26:50;1.80;;;1.70;;
16133;SDS011;8172;45.018;5.972;2022-08-18T21:37:13;1.87;;;1.67;;
16133;SDS011;8172;45.018;5.972;2022-08-18T21:42:24;2.00;;;1.40;;
16133;SDS011;8172;45.018;5.972;2022-08-18T21:47:32;1.83;;;1.30;;
16133;SDS011;8172;45.018;5.972;2022-08-18T21:58:00;4.23;;;1.50;;
16133;SDS011;8172;45.018;5.972;2022-08-18T22:08:15;2.17;;;1.10;;
16133;SDS011;8172;45.018;5.972;2022-08-18T22:13:24;1.50;;;1.40;;
16133;SDS011;8172;45.018;5.972;2022-08-18T22:18:36;1.50;;;1.07;;
16133;SDS011;8172;45.018;5.972;2022-08-18T22:23:44;1.93;;;1.40;;
16133;SDS011;8172;45.018;5.972;2022-08-18T22:34:08;1.47;;;1.30;;
16133;SDS011;8172;45.018;5.972;2022-08-18T22:39:17;2.07;;;1.27;;
16133;SDS011;8172;45.018;5.972;2022-08-18T22:44:24;3.10;;;1.20;;
16133;SDS011;8172;45.018;5.972;2022-08-18T22:49:32;2.23;;;1.73;;
16133;SDS011;8172;45.018;5.972;2022-08-18T22:54:41;1.37;;;1.20;;
16133;SDS011;8172;45.018;5.972;2022-08-18T22:59:48;1.10;;;1.00;;
16133;SDS011;8172;45.018;5.972;2022-08-18T23:04:55;1.87;;;1.30;;
16133;SDS011;8172;45.018;5.972;2022-08-18T23:10:03;1.30;;;1.10;;
16133;SDS011;8172;45.018;5.972;2022-08-18T23:15:14;2.63;;;1.20;;
16133;SDS011;8172;45.018;5.972;2022-08-18T23:20:23;1.30;;;1.20;;
16133;SDS011;8172;45.018;5.972;2022-08-18T23:25:30;1.77;;;1.40;;
16133;SDS011;8172;45.018;5.972;2022-08-18T23:30:38;1.30;;;1.10;;
16133;SDS011;8172;45.018;5.972;2022-08-18T23:35:47;1.40;;;1.00;;
16133;SDS011;8172;45.018;5.972;2022-08-18T23:40:54;1.33;;;1.03;;
16133;SDS011;8172;45.018;5.972;2022-08-18T23:46:02;1.97;;;1.03;;
16133;SDS011;8172;45.018;5.972;2022-08-18T23:51:10;1.23;;;1.10;;
16133;SDS011;8172;45.018;5.972;2022-08-18T23:56:17;1.10;;;1.00;;
